Latest Weather Observations for Roxby Downs

IDS60801

Issued at 9:01 am CST Tuesday 18 June 2019 (issued every 10 minutes, with the page automatically refreshed every 10 minutes)

About weather observations | Map of weather stations | Latest weather observations for SA | Other Formats
Station Details ID: 016096 Name: OLYMPIC DAM AERODROME Lat: -30.48 Lon: 136.88 Height: 98.5 m
Data from the previous 72 hours. | See also: Recent months at Roxby Downs
Date/Time
CST
Temp
°C
App
Temp
°C
Dew
Point
°C
Rel
Hum
%
Delta-T
°C
Wind Press
QNH
hPa
Press
MSL
hPa
Rain since
9am
mm
Dir  Spd
km/h
Gust
km/h
Spd
kts
Gust
kts
18/09:00am 10.6 7.4 8.4 86 1.1 SSW 15 20 8 11 1026.7 1026.7 0.0
18/08:30am 10.6 7.4 8.5 87 1.0 SSW 15 20 8 11 1026.1 1026.2 0.0
18/08:00am 9.4 5.8 8.2 92 0.6 SW 17 19 9 10 1025.8 1025.9 0.0
18/07:30am 9.0 6.4 7.8 92 0.6 SW 11 13 6 7 1025.2 1025.3 0.0
18/07:00am 9.4 7.2 7.8 90 0.8 SSW 9 11 5 6 1024.7 1024.8 0.0
18/06:30am 10.1 7.6 8.0 87 1.0 SSW 11 15 6 8 1024.3 1024.4 0.0
18/06:00am 10.9 7.7 8.5 85 1.2 SSW 15 17 8 9 1024.1 1024.2 0.0
18/05:30am 11.8 8.3 8.6 81 1.6 SSW 17 24 9 13 1023.9 1024.0 0.0
18/05:00am 12.0 7.9 8.5 79 1.7 SSW 20 28 11 15 1023.5 1023.6 0.0
18/04:30am 11.5 7.5 6.6 72 2.3 SSW 17 20 9 11 1023.0 1023.1 0.0
18/04:00am 11.6 7.9 6.1 69 2.6 SSW 15 19 8 10 1022.9 1023.0 0.0
18/03:30am 11.4 7.5 5.3 66 2.8 SW 15 20 8 11 1022.9 1023.0 0.0
18/03:00am 11.1 7.2 5.2 67 2.7 WSW 15 19 8 10 1022.9 1023.0 0.0
18/02:30am 10.7 7.6 5.5 70 2.4 W 11 13 6 7 1022.7 1022.8 0.0
18/02:00am 10.9 7.8 5.4 69 2.5 WNW 11 13 6 7 1022.6 1022.7 0.0
18/01:30am 10.2 7.1 5.4 72 2.2 WNW 11 13 6 7 1022.6 1022.7 0.0
18/01:00am 8.9 6.1 5.3 78 1.6 WNW 9 9 5 5 1022.6 1022.7 0.0
18/12:30am 9.9 7.0 4.9 71 2.2 NW 9 11 5 6 1022.7 1022.8 0.0
18/12:00am 10.6 8.2 5.2 69 2.5 NW 7 9 4 5 1022.9 1023.0 0.0
 
Date/Time
CST
Temp
°C
App
Temp
°C
Dew
Point
°C
Rel
Hum
%
Delta-T
°C
Wind Press
QNH
hPa
Press
MSL
hPa
Rain since
9am
mm
Dir  Spd
km/h
Gust
km/h
Spd
kts
Gust
kts
17/11:30pm 11.2 8.8 5.3 67 2.7 NNW 7 9 4 5 1023.0 1023.1 0.0
17/11:00pm 11.5 9.2 5.8 68 2.7 N 7 9 4 5 1023.1 1023.2 0.0
17/10:30pm 11.1 8.5 6.0 71 2.4 N 9 9 5 5 1023.2 1023.3 0.0
17/10:00pm 10.9 8.6 5.7 70 2.4 NNW 7 7 4 4 1023.3 1023.4 0.0
17/09:30pm 9.5 7.4 5.7 77 1.7 NNW 6 7 3 4 1023.4 1023.5 0.0
17/09:00pm 10.1 7.7 5.1 71 2.3 NNW 7 9 4 5 1023.4 1023.5 0.0
17/08:30pm 10.8 8.4 5.3 69 2.5 NW 7 9 4 5 1023.6 1023.7 0.0
17/08:00pm 12.8 10.0 5.0 59 3.6 NW 9 9 5 5 1023.5 1023.6 0.0
17/07:30pm 12.7 9.8 4.9 59 3.6 NW 9 9 5 5 1023.3 1023.4 0.0
17/07:00pm 12.2 9.4 5.1 62 3.3 WNW 9 9 5 5 1023.1 1023.2 0.0
17/06:30pm 13.2 12.2 5.6 60 3.6 CALM 0 0 0 0 1022.8 1022.9 0.0
17/06:00pm 14.7 12.4 5.0 52 4.5 W 6 - 3 - - 1022.8 -
17/05:30pm 15.2 12.2 4.0 47 5.2 WSW 9 13 5 7 1022.5 1022.6 0.0
17/05:00pm 15.5 12.2 4.6 48 5.1 WSW 11 17 6 9 1022.6 1022.7 0.0
17/04:30pm 15.7 11.2 4.4 47 5.3 SW 17 20 9 11 1022.7 1022.8 0.0
17/04:00pm 16.1 11.9 3.9 44 5.7 WSW 15 20 8 11 1022.7 1022.8 0.0
17/03:30pm 16.4 11.9 4.1 44 5.7 W 17 24 9 13 1022.8 1022.9 0.0
17/03:00pm 16.9 11.6 2.9 39 6.4 W 20 28 11 15 1022.7 1022.8 0.0
17/02:30pm 16.8 11.3 2.0 37 6.6 W 20 28 11 15 1022.8 1022.9 0.0
17/02:00pm 16.3 12.1 3.7 43 5.8 W 15 20 8 11 1022.9 1023.0 0.0
17/01:30pm 16.6 12.1 4.0 43 5.9 W 17 24 9 13 1023.1 1023.2 0.0
17/01:00pm 16.4 12.5 5.4 48 5.3 WNW 15 28 8 15 1023.5 1023.6 0.0
17/12:30pm 16.4 13.6 6.8 53 4.7 WNW 11 20 6 11 1023.9 1024.0 0.0
17/12:00pm 15.8 13.1 7.3 57 4.2 WNW 11 17 6 9 1024.4 1024.5 0.0
17/11:30am 15.1 12.5 7.9 62 3.6 WNW 11 17 6 9 1024.7 1024.8 0.0
17/11:00am 14.7 12.5 8.0 64 3.4 WNW 9 13 5 7 1025.0 1025.1 0.0
17/10:30am 13.2 11.4 7.9 70 2.6 W 7 9 4 5 1025.0 1025.1 0.0
17/10:00am 11.8 11.2 7.3 74 2.2 CALM 0 0 0 0 1025.2 1025.3 0.0
17/09:30am 10.6 10.0 7.5 81 1.5 CALM 0 0 0 0 1025.1 1025.2 0.0
17/09:00am 9.2 8.6 7.2 87 0.9 CALM 0 0 0 0 1025.0 1025.1 0.0
17/08:30am 7.9 6.9 7.3 96 0.3 WNW 2 7 1 4 1024.8 1024.9 0.0
17/08:00am 5.5 4.4 5.1 97 0.2 CALM 0 0 0 0 1024.4 1024.5 0.0
17/07:30am 4.1 2.7 3.5 96 0.2 CALM 0 0 0 0 1024.1 1024.2 0.0
17/07:00am 4.0 2.6 3.4 96 0.2 CALM 0 0 0 0 1024.1 1024.2 0.0
17/06:30am 4.3 2.9 3.6 95 0.3 CALM 0 0 0 0 1024.0 1024.1 0.0
17/06:00am 4.1 2.7 3.4 95 0.3 CALM 0 0 0 0 1023.9 1024.0 0.0
17/05:30am 4.3 2.9 3.4 94 0.4 CALM 0 0 0 0 1023.6 1023.7 0.0
17/05:00am 4.5 3.1 3.6 94 0.4 CALM 0 0 0 0 1023.3 1023.4 0.0
17/04:30am 4.7 3.3 3.8 94 0.4 CALM 0 0 0 0 1023.2 1023.3 0.0
17/04:00am 5.3 4.1 4.4 94 0.4 CALM 0 0 0 0 1023.3 1023.4 0.0
17/03:30am 5.2 3.9 4.2 93 0.4 CALM 0 0 0 0 1023.3 1023.4 0.0
17/03:00am 5.7 4.5 4.7 93 0.4 CALM 0 0 0 0 1023.4 1023.5 0.0
17/02:30am 6.1 5.0 5.1 93 0.4 CALM 0 0 0 0 1023.4 1023.5 0.0
17/02:00am 5.7 4.5 4.7 93 0.4 CALM 0 0 0 0 1023.6 1023.7 0.0
17/01:30am 5.9 4.8 4.9 93 0.4 CALM 0 0 0 0 1023.4 1023.5 0.0
17/01:00am 6.2 5.1 5.2 93 0.4 CALM 0 0 0 0 1023.5 1023.6 0.0
17/12:30am 6.4 5.3 5.2 92 0.5 CALM 0 0 0 0 1023.8 1023.9 0.0
17/12:00am 6.6 4.8 5.2 91 0.6 SW 4 7 2 4 1024.0 1024.1 0.0
 
Date/Time
CST
Temp
°C
App
Temp
°C
Dew
Point
°C
Rel
Hum
%
Delta-T
°C
Wind Press
QNH
hPa
Press
MSL
hPa
Rain since
9am
mm
Dir  Spd
km/h
Gust
km/h
Spd
kts
Gust
kts
16/11:30pm 6.8 5.7 5.3 90 0.7 CALM 0 0 0 0 1024.1 1024.2 0.0
16/11:00pm 7.3 6.3 5.6 89 0.8 CALM 0 0 0 0 1024.1 1024.2 0.0
16/10:30pm 7.6 6.6 5.7 88 0.9 CALM 0 0 0 0 1023.9 1024.0 0.0
16/10:00pm 8.0 7.0 5.8 86 1.0 CALM 0 0 0 0 1023.8 1023.9 0.0
16/09:30pm 8.4 7.5 5.9 84 1.1 CALM 0 0 0 0 1023.9 1024.0 0.0
16/09:00pm 8.9 8.0 6.0 82 1.3 CALM 0 0 0 0 1024.0 1024.1 0.0
16/08:30pm 9.6 8.6 5.8 77 1.7 CALM 0 0 0 0 1023.8 1023.9 0.0
16/08:00pm 10.1 8.0 5.9 75 1.9 SSW 6 7 3 4 1023.8 1023.9 0.0
16/07:30pm 11.1 8.9 5.4 68 2.6 SSW 6 7 3 4 1023.7 1023.8 0.0
16/07:00pm 12.7 10.0 5.4 61 3.4 SSW 9 9 5 5 1023.2 1023.3 0.0
16/06:30pm 13.7 10.5 5.3 57 3.9 SSW 11 11 6 6 1022.7 1022.8 0.0
16/06:00pm 14.9 11.4 5.4 53 4.5 SSW 13 17 7 9 1022.4 1022.5 0.0
16/05:30pm 15.7 12.5 5.3 50 4.9 SW 11 15 6 8 1022.2 1022.3 0.0
16/05:00pm 16.4 12.0 4.8 46 5.5 SW 17 20 9 11 1021.9 1022.0 0.0
16/04:30pm 16.8 12.0 4.8 45 5.7 SW 19 28 10 15 1021.7 1021.8 0.0
16/04:00pm 17.0 12.1 5.3 46 5.6 WSW 20 28 11 15 1021.7 1021.8 0.0
16/03:30pm 17.0 12.0 4.7 44 5.8 SW 20 30 11 16 1021.5 1021.6 0.0
16/03:00pm 17.2 12.4 5.5 46 5.7 SW 20 30 11 16 1021.3 1021.4 0.0
16/02:30pm 17.5 12.8 6.1 47 5.6 WSW 20 32 11 17 1021.3 1021.4 0.0
16/02:00pm 17.5 13.0 6.1 47 5.6 WSW 19 28 10 15 1021.1 1021.2 0.0
16/01:30pm 16.8 12.3 6.0 49 5.3 W 19 26 10 14 1021.2 1021.3 0.0
16/01:00pm 16.3 11.9 6.7 53 4.7 W 19 24 10 13 1021.6 1021.7 0.0
16/12:30pm 15.8 11.9 7.1 56 4.3 W 17 24 9 13 1021.9 1022.0 0.0
16/12:00pm 14.9 11.3 6.7 58 4.0 W 15 19 8 10 1022.4 1022.5 0.0
16/11:30am 13.5 10.4 5.7 59 3.7 SSW 11 15 6 8 1023.0 1023.1 0.0
16/11:00am 12.7 9.2 5.6 62 3.3 SSW 13 17 7 9 1023.3 1023.4 0.0
16/10:30am 12.7 8.7 4.7 58 3.7 SW 15 20 8 11 1023.8 1023.9 0.0
16/10:00am 12.5 8.9 5.2 61 3.4 WSW 13 17 7 9 1023.9 1024.0 0.0
16/09:30am 11.5 8.2 4.5 62 3.2 W 11 20 6 11 1023.8 1023.9 0.0
16/09:00am 11.1 8.1 4.1 62 3.1 WNW 9 11 5 6 1022.8 1022.9 0.0
16/08:30am 9.9 6.9 3.9 66 2.6 NW 9 13 5 7 1022.4 1022.5 0.0
16/08:00am 8.2 5.6 4.0 75 1.8 NNW 7 9 4 5 1022.1 1022.2 0.0
16/07:30am 7.3 4.5 3.2 75 1.7 NNW 7 9 4 5 1021.8 1021.9 0.0
16/07:00am 7.1 3.9 3.2 76 1.7 NW 9 11 5 6 1021.7 1021.8 0.0
16/06:30am 6.3 3.6 3.5 82 1.2 WNW 7 9 4 5 1021.5 1021.6 0.0
16/06:00am 7.4 6.0 3.5 76 1.7 CALM 0 0 0 0 1021.2 1021.3 0.0
16/05:30am 7.6 4.5 3.8 77 1.6 NW 9 13 5 7 1020.9 1021.0 0.0
16/05:00am 6.5 3.5 4.2 85 1.0 NNW 9 11 5 6 1020.7 1020.8 0.0
16/04:30am 7.6 5.3 4.6 81 1.3 NNW 6 7 3 4 1020.7 1020.8 0.0
16/04:00am 7.6 5.2 5.2 85 1.1 NW 7 11 4 6 1020.7 1020.8 0.0
16/03:30am 7.4 5.1 5.5 88 0.8 NNE 7 9 4 5 1020.7 1020.8 0.0
16/03:00am 7.7 5.2 6.5 92 0.6 NNE 9 11 5 6 1020.8 1020.9 0.0
16/02:30am 7.3 6.4 6.2 93 0.5 CALM 0 0 0 0 1021.1 1021.2 0.0
16/02:00am 7.2 6.3 6.0 92 0.5 CALM 0 0 0 0 1021.1 1021.2 0.0
16/01:30am 7.2 6.2 5.7 90 0.7 CALM 0 0 0 0 1021.4 1021.5 0.0
16/01:00am 7.7 6.7 5.8 88 0.9 CALM 0 0 0 0 1021.6 1021.7 0.0
16/12:30am 8.5 7.6 6.1 85 1.1 CALM 0 0 0 0 1021.7 1021.8 0.0
16/12:00am 9.8 8.5 5.8 76 1.8 WNW 2 7 1 4 1021.8 1021.9 0.0
 
Date/Time
CST
Temp
°C
App
Temp
°C
Dew
Point
°C
Rel
Hum
%
Delta-T
°C
Wind Press
QNH
hPa
Press
MSL
hPa
Rain since
9am
mm
Dir  Spd
km/h
Gust
km/h
Spd
kts
Gust
kts
15/11:30pm 9.4 7.1 7.5 88 0.9 NW 9 11 5 6 1021.9 1022.0 0.0
15/11:00pm 9.3 8.7 7.6 89 0.8 CALM 0 0 0 0 1022.0 1022.1 0.0
15/10:30pm 10.0 9.4 7.6 85 1.1 CALM 0 0 0 0 1021.9 1022.0 0.0
15/10:00pm 10.3 9.9 8.1 86 1.1 CALM 0 0 0 0 1021.8 1021.9 0.0
15/09:30pm 10.8 9.2 8.0 83 1.4 NW 6 7 3 4 1021.7 1021.8 0.0
15/09:00pm 11.2 10.8 8.1 81 1.5 CALM 0 0 0 0 1021.7 1021.8 0.0
15/08:30pm 11.9 11.6 8.6 80 1.6 CALM 0 0 0 0 1021.6 1021.7 0.0
15/08:00pm 12.2 11.9 8.7 79 1.8 CALM 0 0 0 0 1021.3 1021.4 0.0
15/07:30pm 12.6 12.3 8.7 77 1.9 CALM 0 0 0 0 1021.1 1021.2 0.0
15/07:00pm 13.3 11.7 8.0 70 2.6 ESE 6 7 3 4 1020.8 1020.9 0.0
15/06:30pm 13.9 13.3 7.4 65 3.2 CALM 0 0 0 0 1020.7 1020.8 0.0
15/06:00pm 14.8 14.1 6.9 59 3.9 CALM 0 0 0 0 1020.4 1020.5 0.0
15/05:30pm 16.5 15.3 4.5 45 5.7 CALM 0 0 0 0 1020.4 1020.5 0.0
15/05:00pm 17.9 16.5 3.8 39 6.6 CALM 0 6 0 3 1020.3 1020.4 0.0
15/04:30pm 18.2 15.6 4.4 40 6.6 W 7 9 4 5 1020.3 1020.4 0.0
15/04:00pm 17.8 15.3 4.0 40 6.5 W 6 9 3 5 1020.1 1020.2 0.0
15/03:30pm 18.2 15.9 4.7 41 6.5 SSE 6 11 3 6 1020.0 1020.1 0.0
15/03:00pm 18.0 15.6 4.2 40 6.5 SE 6 11 3 6 1020.2 1020.3 0.0
15/02:30pm 18.0 15.2 5.2 43 6.2 E 9 17 5 9 1020.3 1020.4 0.0
15/02:00pm 18.3 17.1 4.8 41 6.5 CALM 0 9 0 5 1021.1 1021.2 0.0
15/01:30pm 17.2 14.5 5.8 47 5.5 NW 9 11 5 6 1021.4 1021.5 0.0
15/01:00pm 17.6 15.4 6.2 47 5.6 NE 7 11 4 6 1021.8 1021.9 0.0
15/12:30pm 17.2 15.3 6.7 50 5.2 NE 6 15 3 8 1022.1 1022.2 0.0
15/12:00pm 17.5 15.2 7.3 51 5.1 N 9 17 5 9 1022.5 1022.6 0.0
15/11:30am 17.7 15.5 8.0 53 4.9 ENE 9 15 5 8 1022.8 1022.9 0.0
15/11:00am 17.2 15.7 8.4 56 4.5 NE 6 11 3 6 1023.2 1023.3 0.0
15/10:30am 16.3 15.0 7.8 57 4.3 NE 4 9 2 5 1023.4 1023.5 0.0
15/10:00am 15.4 13.8 8.6 64 3.5 NNE 7 9 4 5 1023.4 1023.5 0.0
15/09:30am 14.3 12.6 8.3 67 3.0 NE 7 11 4 6 1023.7 1023.8 0.0

Other formats

Comma delimited format used in spreadsheet applications
http://www.bom.gov.au/fwo/IDS60801/IDS60801.95658.axf

JavaScript Object Notation format (JSON) in row-major order
http://www.bom.gov.au/fwo/IDS60801/IDS60801.95658.json

Data quality

Most of these data are generated automatically and are frequently updated. Quality checks on data are not normally performed. It is possible for incorrect values to appear. Refer to information at About Latest Weather Observations and please check the disclaimer before using these data.